createdAt,value
2023-02-17T00:00:38.606Z,101296.09
2023-02-17T00:03:23.031Z,101293.41
2023-02-17T00:05:50.887Z,101285.06
2023-02-17T00:08:17.884Z,101283.38
2023-02-17T00:10:44.207Z,101289.13
2023-02-17T00:13:10.770Z,101282.53
2023-02-17T00:15:40.107Z,101281.31
2023-02-17T00:18:06.633Z,101278.50
2023-02-17T00:20:32.877Z,101273.00
2023-02-17T00:22:59.421Z,101277.88
2023-02-17T00:25:25.786Z,101276.91
2023-02-17T00:27:52.237Z,101280.69
2023-02-17T00:30:18.615Z,101274.19
2023-02-17T00:32:45.181Z,101283.72
2023-02-17T00:35:12.252Z,101277.13
2023-02-17T00:37:44.828Z,101275.69
2023-02-17T00:40:12.502Z,101280.47
2023-02-17T00:42:38.981Z,101270.81
2023-02-17T00:45:06.293Z,101276.72
2023-02-17T00:47:33.162Z,101272.28
2023-02-17T00:49:59.596Z,101277.81
2023-02-17T00:52:26.736Z,101267.88
2023-02-17T00:54:52.995Z,101262.38
2023-02-17T00:57:19.468Z,101270.00
2023-02-17T00:59:45.660Z,101260.06
2023-02-17T01:02:12.101Z,101264.25
2023-02-17T01:04:38.280Z,101257.00
2023-02-17T01:07:04.712Z,101254.09
2023-02-17T01:09:30.881Z,101262.78
2023-02-17T01:11:57.502Z,101246.75
2023-02-17T01:14:24.044Z,101243.06
2023-02-17T01:16:50.610Z,101246.63
2023-02-17T01:19:18.763Z,101253.38
2023-02-17T01:21:48.365Z,101251.78
2023-02-17T01:24:15.779Z,101243.31
2023-02-17T01:26:42.288Z,101234.03
2023-02-17T01:29:08.536Z,101237.56
2023-02-17T01:31:35.515Z,101228.88
2023-02-17T01:34:03.550Z,101220.78
2023-02-17T01:36:30.277Z,101222.34
2023-02-17T01:38:56.759Z,101218.44
2023-02-17T01:41:28.880Z,101215.50
2023-02-17T01:44:13.496Z,101217.22
2023-02-17T01:46:42.370Z,101215.25
2023-02-17T01:49:16.981Z,101210.00
2023-02-17T01:51:46.334Z,101201.03
2023-02-17T01:54:19.644Z,101193.31
2023-02-17T01:56:48.066Z,101183.38
2023-02-17T01:59:19.214Z,101185.09
2023-02-17T02:01:54.025Z,101178.84
2023-02-17T02:04:23.885Z,101180.69
2023-02-17T02:06:50.468Z,101170.63
2023-02-17T02:09:24.967Z,101175.03
2023-02-17T02:11:51.847Z,101174.94
2023-02-17T02:14:20.216Z,101172.34
2023-02-17T02:17:34.102Z,101175.78
2023-02-17T02:20:15.329Z,101162.53
2023-02-17T02:23:12.229Z,101165.25
2023-02-17T02:26:06.168Z,101158.75
2023-02-17T02:28:56.188Z,101149.78
2023-02-17T02:32:00.248Z,101153.00
2023-02-17T02:34:45.048Z,101153.09
2023-02-17T02:37:21.226Z,101163.28
2023-02-17T02:39:53.233Z,101153.97
2023-02-17T02:42:23.703Z,101151.75
2023-02-17T02:44:50.699Z,101142.06
2023-02-17T02:47:41.965Z,101146.38
2023-02-17T02:50:12.147Z,101149.31
2023-02-17T02:53:03.583Z,101147.34
2023-02-17T02:55:48.862Z,101138.03
2023-02-17T02:58:26.848Z,101133.63
2023-02-17T03:01:13.288Z,101123.94
2023-02-17T03:03:47.956Z,101129.94
2023-02-17T03:06:25.576Z,101128.47
2023-02-17T03:09:10.445Z,101124.78
2023-02-17T03:11:37.326Z,101127.50
2023-02-17T03:14:06.995Z,101122.84
2023-02-17T03:16:35.992Z,101121.00
2023-02-17T03:19:02.471Z,101120.63
2023-02-17T03:21:37.100Z,101119.50
2023-02-17T03:24:04.426Z,101117.91
2023-02-17T03:26:31.189Z,101114.97
2023-02-17T03:28:57.484Z,101116.81
2023-02-17T03:31:24.554Z,101122.22
2023-02-17T03:33:50.807Z,101109.97
2023-02-17T03:36:17.494Z,101114.25
2023-02-17T03:38:43.746Z,101108.34
2023-02-17T03:41:10.302Z,101107.00
2023-02-17T03:43:36.546Z,101104.44
2023-02-17T03:46:03.811Z,101099.28
2023-02-17T03:48:30.355Z,101101.88
2023-02-17T03:50:57.146Z,101090.34
2023-02-17T03:53:23.495Z,101090.94
2023-02-17T03:55:49.936Z,101087.03
2023-02-17T03:58:16.205Z,101076.72
2023-02-17T04:00:42.636Z,101080.91
2023-02-17T04:03:08.878Z,101081.03
2023-02-17T04:05:35.426Z,101074.16
2023-02-17T04:08:01.598Z,101072.94
2023-02-17T04:10:28.152Z,101069.50
2023-02-17T04:12:54.400Z,101062.53
2023-02-17T04:15:21.053Z,101062.78
2023-02-17T04:17:47.380Z,101059.34
2023-02-17T04:20:13.828Z,101055.41
2023-02-17T04:22:40.044Z,101048.31
2023-02-17T04:25:06.713Z,101051.25
2023-02-17T04:27:33.230Z,101051.63
2023-02-17T04:29:59.804Z,101053.81
2023-02-17T04:32:26.003Z,101048.56
2023-02-17T04:34:52.471Z,101052.97
2023-02-17T04:37:18.556Z,101053.69
2023-02-17T04:39:45.051Z,101050.88
2023-02-17T04:42:11.209Z,101055.41
2023-02-17T04:44:37.817Z,101061.41
2023-02-17T04:47:04.048Z,101042.66
2023-02-17T04:49:30.824Z,101046.81
2023-02-17T04:51:57.089Z,101043.03
2023-02-17T04:54:23.636Z,101042.16
2023-02-17T04:56:49.988Z,101035.78
2023-02-17T04:59:16.542Z,101031.97
2023-02-17T05:01:43.068Z,101023.91
2023-02-17T05:04:09.647Z,101025.47
2023-02-17T05:06:35.880Z,101008.31
2023-02-17T05:09:02.677Z,101008.56
2023-02-17T05:11:30.771Z,101005.38
2023-02-17T05:13:57.320Z,100994.56
2023-02-17T05:16:23.575Z,100996.78
2023-02-17T05:18:50.341Z,100998.25
2023-02-17T05:21:16.645Z,101001.81
2023-02-17T05:23:43.128Z,101007.34
2023-02-17T05:26:10.074Z,101011.38
2023-02-17T05:28:36.917Z,101007.56
2023-02-17T05:31:03.959Z,101011.97
2023-02-17T05:33:30.599Z,101006.56
2023-02-17T05:36:01.556Z,101004.47
2023-02-17T05:38:28.194Z,100994.53
2023-02-17T05:40:54.990Z,100992.09
2023-02-17T05:43:21.728Z,100987.31
2023-02-17T05:45:48.163Z,100990.72
2023-02-17T05:48:15.103Z,100992.44
2023-02-17T05:50:41.381Z,100990.72
2023-02-17T05:53:08.039Z,100982.50
2023-02-17T05:55:34.495Z,100982.63
2023-02-17T05:58:01.255Z,100977.97
2023-02-17T06:00:28.111Z,100983.38
2023-02-17T06:02:55.044Z,100979.44
2023-02-17T06:05:21.536Z,100975.88
2023-02-17T06:07:48.386Z,100961.28
2023-02-17T06:10:14.653Z,100973.03
2023-02-17T06:12:41.214Z,100966.66
2023-02-17T06:15:07.616Z,100972.06
2023-02-17T06:17:34.116Z,100965.69
2023-02-17T06:20:00.537Z,100965.69
2023-02-17T06:22:27.134Z,100962.97
2023-02-17T06:24:53.542Z,100959.56
2023-02-17T06:27:20.934Z,100955.75
2023-02-17T06:29:47.229Z,100953.78
2023-02-17T06:32:13.841Z,100960.63
2023-02-17T06:34:40.070Z,100964.78
2023-02-17T06:37:06.599Z,100956.81
2023-02-17T06:39:32.837Z,100953.13
2023-02-17T06:41:59.656Z,100951.16
2023-02-17T06:44:26.086Z,100959.63
2023-02-17T06:46:52.725Z,100953.25
2023-02-17T06:49:19.023Z,100952.25
2023-02-17T06:51:45.585Z,100962.06
2023-02-17T06:54:11.894Z,100952.72
2023-02-17T06:56:38.374Z,100945.75
2023-02-17T06:59:04.797Z,100940.69
2023-02-17T07:01:31.348Z,100935.16
2023-02-17T07:03:57.657Z,100931.09
2023-02-17T07:06:25.174Z,100941.63
2023-02-17T07:08:51.794Z,100926.88
2023-02-17T07:11:18.597Z,100942.59
2023-02-17T07:13:45.176Z,100935.69
2023-02-17T07:16:13.144Z,100934.38
2023-02-17T07:18:39.658Z,100935.22
2023-02-17T07:21:08.610Z,100944.50
2023-02-17T07:23:35.738Z,100948.19
2023-02-17T07:26:05.324Z,100945.25
2023-02-17T07:28:31.789Z,100941.16
2023-02-17T07:31:04.891Z,100938.91
2023-02-17T07:33:31.457Z,100933.25
2023-02-17T07:35:58.006Z,100942.94
2023-02-17T07:38:24.188Z,100940.94
2023-02-17T07:40:50.665Z,100926.84
2023-02-17T07:43:16.831Z,100924.28
2023-02-17T07:45:44.740Z,100932.97
2023-02-17T07:48:10.951Z,100923.56
2023-02-17T07:50:37.513Z,100917.31
2023-02-17T07:53:03.828Z,100923.03
2023-02-17T07:55:30.585Z,100923.03
2023-02-17T07:57:59.260Z,100923.34
2023-02-17T08:00:26.274Z,100920.66
2023-02-17T08:02:52.461Z,100921.25
2023-02-17T08:05:19.206Z,100907.72
2023-02-17T08:07:45.458Z,100907.00
2023-02-17T08:10:31.375Z,100902.91
2023-02-17T08:13:16.289Z,100902.91
2023-02-17T08:15:42.894Z,100906.88
2023-02-17T08:18:09.403Z,100916.09
2023-02-17T08:20:35.888Z,100902.34
2023-02-17T08:23:02.889Z,100904.31
2023-02-17T08:25:33.713Z,100913.13
2023-02-17T08:28:00.357Z,100910.56
2023-02-17T08:30:27.546Z,100906.06
2023-02-17T08:32:54.084Z,100911.34
2023-02-17T08:35:23.684Z,100887.88
2023-02-17T08:37:50.220Z,100897.28
2023-02-17T08:40:18.669Z,100896.16
2023-02-17T08:42:45.025Z,100889.91
2023-02-17T08:45:13.993Z,100884.91
2023-02-17T08:47:40.817Z,100879.63
2023-02-17T08:50:09.682Z,100889.19
2023-02-17T08:52:36.060Z,100871.66
2023-02-17T08:55:03.152Z,100872.97
2023-02-17T08:57:29.876Z,100870.13
2023-02-17T08:59:56.553Z,100872.88
2023-02-17T09:02:23.032Z,100872.59
2023-02-17T09:04:49.835Z,100872.88
2023-02-17T09:07:16.169Z,100869.31
2023-02-17T09:09:42.714Z,100861.06
2023-02-17T09:12:09.202Z,100851.09
2023-02-17T09:14:38.410Z,100850.00
2023-02-17T09:17:05.237Z,100849.00
2023-02-17T09:19:31.860Z,100838.50
2023-02-17T09:21:58.197Z,100843.16
2023-02-17T09:24:24.751Z,100830.78
2023-02-17T09:26:51.177Z,100840.19
2023-02-17T09:29:18.156Z,100833.78
2023-02-17T09:31:45.309Z,100831.09
2023-02-17T09:34:12.090Z,100832.22
2023-02-17T09:36:40.688Z,100838.47
2023-02-17T09:39:09.020Z,100828.53
2023-02-17T09:41:37.288Z,100810.75
2023-02-17T09:44:31.619Z,100819.72
2023-02-17T09:47:12.607Z,100809.31
2023-02-17T09:49:44.199Z,100808.31
2023-02-17T09:52:16.646Z,100813.44
2023-02-17T09:54:57.336Z,100799.22
2023-02-17T09:57:27.518Z,100802.34
2023-02-17T10:00:00.913Z,100803.50
2023-02-17T10:02:39.230Z,100801.63
2023-02-17T10:05:11.078Z,100789.38
2023-02-17T10:07:47.567Z,100783.25
2023-02-17T10:10:25.404Z,100780.00
2023-02-17T10:12:56.177Z,100780.41
2023-02-17T10:15:27.028Z,100785.13
2023-02-17T10:18:30.016Z,100790.09
2023-02-17T10:21:04.092Z,100773.16
2023-02-17T10:23:30.719Z,100773.03
2023-02-17T10:26:23.265Z,100771.31
2023-02-17T10:29:00.048Z,100756.66
2023-02-17T10:31:44.681Z,100758.50
2023-02-17T10:34:20.307Z,100754.50
2023-02-17T10:37:20.224Z,100749.22
2023-02-17T10:39:54.298Z,100745.97
2023-02-17T10:42:26.363Z,100741.97
2023-02-17T10:44:59.834Z,100739.13
2023-02-17T10:47:26.678Z,100735.69
2023-02-17T10:49:55.756Z,100726.84
2023-02-17T10:52:31.503Z,100722.84
2023-02-17T10:55:21.001Z,100719.41
2023-02-17T10:57:57.309Z,100709.56
2023-02-17T11:00:23.623Z,100707.72
2023-02-17T11:02:51.622Z,100696.75
2023-02-17T11:05:33.448Z,100695.75
2023-02-17T11:08:04.865Z,100679.81
2023-02-17T11:10:34.910Z,100675.22
2023-02-17T11:13:03.867Z,100668.81
2023-02-17T11:15:35.561Z,100665.41
2023-02-17T11:18:10.583Z,100651.28
2023-02-17T11:20:38.194Z,100648.16
2023-02-17T11:23:22.806Z,100630.63
2023-02-17T11:26:01.770Z,100625.50
2023-02-17T11:28:28.743Z,100620.25
2023-02-17T11:30:58.070Z,100612.81
2023-02-17T11:33:35.333Z,100610.66
2023-02-17T11:36:02.211Z,100600.53
2023-02-17T11:38:39.464Z,100585.41
2023-02-17T11:41:07.357Z,100580.34
2023-02-17T11:43:35.914Z,100571.91
2023-02-17T11:46:21.529Z,100559.06
2023-02-17T11:49:17.376Z,100555.81
2023-02-17T11:51:55.894Z,100545.53
2023-02-17T11:54:30.888Z,100554.59
2023-02-17T11:57:27.569Z,100546.34
2023-02-17T12:00:16.996Z,100556.81
2023-02-17T12:02:58.306Z,100541.69
2023-02-17T12:05:33.916Z,100540.75
2023-02-17T12:08:21.356Z,100534.69
2023-02-17T12:11:08.916Z,100528.66
2023-02-17T12:13:55.349Z,100522.41
2023-02-17T12:16:46.932Z,100507.09
2023-02-17T12:19:41.134Z,100499.72
2023-02-17T12:22:17.696Z,100493.59
2023-02-17T12:25:19.200Z,100490.97
2023-02-17T12:27:52.617Z,100484.84
2023-02-17T12:30:29.259Z,100479.81
2023-02-17T12:33:01.792Z,100469.44
2023-02-17T12:35:45.101Z,100470.94
2023-02-17T12:38:16.187Z,100461.41
2023-02-17T12:40:49.717Z,100457.94
2023-02-17T12:43:23.538Z,100452.66
2023-02-17T12:45:50.769Z,100464.81
2023-02-17T12:48:24.783Z,100450.50
2023-02-17T12:51:25.510Z,100443.47
2023-02-17T12:54:07.659Z,100444.78
2023-02-17T12:57:12.484Z,100437.66
2023-02-17T12:59:41.978Z,100421.34
2023-02-17T13:02:13.030Z,100413.91
2023-02-17T13:04:42.595Z,100407.66
2023-02-17T13:07:25.708Z,100405.25
2023-02-17T13:09:55.804Z,100393.41
2023-02-17T13:12:22.076Z,100392.56
2023-02-17T13:15:00.501Z,100382.69
2023-02-17T13:17:36.385Z,100382.88
2023-02-17T13:20:04.939Z,100378.94
2023-02-17T13:22:32.263Z,100368.50
2023-02-17T13:25:00.313Z,100356.28
2023-02-17T13:27:27.834Z,100342.25
2023-02-17T13:30:28.394Z,100346.38
2023-02-17T13:33:05.142Z,100336.88
2023-02-17T13:35:36.708Z,100335.03
2023-02-17T13:38:03.845Z,100321.88
2023-02-17T13:40:36.814Z,100310.19
2023-02-17T13:43:17.414Z,100299.22
2023-02-17T13:45:59.220Z,100300.44
2023-02-17T13:48:31.852Z,100293.84
2023-02-17T13:51:00.333Z,100285.72
2023-02-17T13:53:38.658Z,100277.09
2023-02-17T13:56:23.805Z,100270.00
2023-02-17T13:58:50.099Z,100267.31
2023-02-17T14:01:28.165Z,100259.69
2023-02-17T14:03:55.589Z,100254.78
2023-02-17T14:06:39.800Z,100256.78
2023-02-17T14:09:18.209Z,100250.22
2023-02-17T14:11:49.299Z,100243.09
2023-02-17T14:14:20.266Z,100237.53
2023-02-17T14:17:27.821Z,100229.03
2023-02-17T14:20:02.996Z,100220.22
2023-02-17T14:22:38.598Z,100222.94
2023-02-17T14:25:13.665Z,100208.22
2023-02-17T14:31:50.073Z,100195.53
2023-02-17T14:34:36.393Z,100188.75
2023-02-17T14:37:25.800Z,100184.38
2023-02-17T14:39:58.752Z,100175.75
2023-02-17T14:42:35.915Z,100170.50
2023-02-17T14:45:04.623Z,100166.78
2023-02-17T14:47:42.247Z,100167.66
2023-02-17T14:50:09.547Z,100173.22
2023-02-17T14:52:48.817Z,100173.19
2023-02-17T14:55:45.895Z,100179.47
2023-02-17T14:58:19.488Z,100187.25
2023-02-17T15:00:47.658Z,100180.31
2023-02-17T15:03:14.577Z,100168.78
2023-02-17T15:05:41.691Z,100174.56
2023-02-17T15:08:17.889Z,100182.69
2023-02-17T15:10:45.173Z,100183.00
2023-02-17T15:13:17.934Z,100175.41
2023-02-17T15:15:46.899Z,100171.84
2023-02-17T15:18:16.136Z,100159.84
2023-02-17T15:20:45.011Z,100174.91
2023-02-17T15:23:14.245Z,100171.19
2023-02-17T15:25:41.322Z,100153.25
2023-02-17T15:28:11.297Z,100143.25
2023-02-17T15:30:38.047Z,100149.03
2023-02-17T15:33:10.440Z,100145.97
2023-02-17T15:35:39.353Z,100132.78
2023-02-17T15:38:09.272Z,100131.25
2023-02-17T15:40:36.313Z,100135.28
2023-02-17T15:43:02.893Z,100133.78
2023-02-17T15:45:30.232Z,100146.66
2023-02-17T15:48:03.895Z,100146.13
2023-02-17T15:50:31.237Z,100132.25
2023-02-17T15:52:58.399Z,100131.25
2023-02-17T15:55:27.666Z,100128.72
2023-02-17T15:57:57.625Z,100121.59
2023-02-17T16:00:27.340Z,100132.09
2023-02-17T16:02:54.097Z,100127.69
2023-02-17T16:05:23.591Z,100120.41
2023-02-17T16:07:50.858Z,100126.34
2023-02-17T16:10:20.249Z,100131.25
2023-02-17T16:12:48.630Z,100139.22
2023-02-17T16:15:18.535Z,100125.69
2023-02-17T16:17:47.988Z,100122.31
2023-02-17T16:20:21.431Z,100123.16
2023-02-17T16:22:48.335Z,100123.84
2023-02-17T16:25:16.616Z,100127.03
2023-02-17T16:27:44.537Z,100121.78
2023-02-17T16:30:34.217Z,100102.50
2023-02-17T16:33:01.857Z,100106.91
2023-02-17T16:35:31.386Z,100097.09
2023-02-17T16:38:06.047Z,100087.25
2023-02-17T16:40:36.263Z,100087.78
2023-02-17T16:43:02.979Z,100082.72
2023-02-17T16:45:32.467Z,100082.56
2023-02-17T16:48:01.508Z,100076.28
2023-02-17T16:50:34.253Z,100074.59
2023-02-17T16:53:08.005Z,100066.66
2023-02-17T16:55:36.270Z,100070.38
2023-02-17T16:58:03.754Z,100064.81
2023-02-17T17:00:32.132Z,100083.59
2023-02-17T17:02:58.416Z,100073.28
2023-02-17T17:05:27.729Z,100074.13
2023-02-17T17:07:55.086Z,100066.69
2023-02-17T17:10:27.967Z,100075.16
2023-02-17T17:12:54.640Z,100086.50
2023-02-17T17:15:21.915Z,100083.78
2023-02-17T17:17:49.659Z,100093.97
2023-02-17T17:20:23.442Z,100090.06
2023-02-17T17:22:50.909Z,100082.59
2023-02-17T17:25:20.774Z,100088.38
2023-02-17T17:27:47.457Z,100096.84
2023-02-17T17:30:19.287Z,100088.69
2023-02-17T17:32:48.249Z,100092.09
2023-02-17T17:35:15.986Z,100098.00
2023-02-17T17:37:45.502Z,100099.34
2023-02-17T17:40:24.196Z,100095.44
2023-02-17T17:42:51.703Z,100090.34
2023-02-17T17:45:18.910Z,100102.53
2023-02-17T17:47:45.277Z,100100.16
2023-02-17T17:50:22.808Z,100109.81
2023-02-17T17:52:49.280Z,100108.63
2023-02-17T17:55:16.185Z,100100.31
2023-02-17T17:57:43.738Z,100103.53
2023-02-17T18:00:13.491Z,100084.38
2023-02-17T18:02:43.256Z,100097.75
2023-02-17T18:05:13.744Z,100092.31
2023-02-17T18:07:43.383Z,100061.50
2023-02-17T18:10:14.116Z,100064.34
2023-02-17T18:12:43.940Z,100067.06
2023-02-17T18:15:11.342Z,100054.69
2023-02-17T18:17:40.808Z,100060.13
2023-02-17T18:20:12.571Z,100070.28
2023-02-17T18:22:39.970Z,100067.91
2023-02-17T18:25:07.788Z,100074.50
2023-02-17T18:27:42.593Z,100075.66
2023-02-17T18:30:11.928Z,100063.59
2023-02-17T18:32:38.270Z,100060.41
2023-02-17T18:35:05.502Z,100064.81
2023-02-17T18:37:32.792Z,100065.97
2023-02-17T18:40:01.579Z,100061.19
2023-02-17T18:42:27.905Z,100062.41
2023-02-17T18:44:56.056Z,100072.91
2023-02-17T18:47:22.903Z,100060.84
2023-02-17T18:49:50.163Z,100057.59
2023-02-17T18:52:17.065Z,100059.78
2023-02-17T18:54:44.961Z,100065.41
2023-02-17T18:57:11.699Z,100073.19
2023-02-17T18:59:38.308Z,100057.88
2023-02-17T19:02:07.897Z,100079.91
2023-02-17T19:04:37.011Z,100091.94
2023-02-17T19:07:06.458Z,100090.56
2023-02-17T19:09:37.195Z,100080.06
2023-02-17T19:12:05.478Z,100077.16
2023-02-17T19:14:32.424Z,100060.69
2023-02-17T19:16:58.958Z,100055.03
2023-02-17T19:19:28.505Z,100044.84
2023-02-17T19:21:55.021Z,100058.59
2023-02-17T19:24:21.889Z,100051.97
2023-02-17T19:26:48.269Z,100055.34
2023-02-17T19:29:14.917Z,100066.88
2023-02-17T19:31:41.192Z,100062.13
2023-02-17T19:34:07.843Z,100067.56
2023-02-17T19:36:34.253Z,100074.69
2023-02-17T19:39:01.022Z,100064.66
2023-02-17T19:41:27.643Z,100065.31
2023-02-17T19:43:54.392Z,100074.31
2023-02-17T19:46:22.196Z,100082.97
2023-02-17T19:48:49.092Z,100093.66
2023-02-17T19:51:18.846Z,100078.91
2023-02-17T19:53:46.301Z,100077.22
2023-02-17T19:56:25.547Z,100097.56
2023-02-17T19:58:52.835Z,100121.53
2023-02-17T20:01:24.727Z,100136.31
2023-02-17T20:03:53.813Z,100133.34
2023-02-17T20:06:23.338Z,100148.50
2023-02-17T20:08:59.708Z,100134.78
2023-02-17T20:11:27.816Z,100161.94
2023-02-17T20:13:57.175Z,100152.97
2023-02-17T20:16:23.625Z,100151.47
2023-02-17T20:18:50.555Z,100157.41
2023-02-17T20:21:22.831Z,100153.69
2023-02-17T20:23:54.283Z,100164.22
2023-02-17T20:26:25.067Z,100174.94
2023-02-17T20:28:52.689Z,100171.56
2023-02-17T20:31:26.044Z,100184.94
2023-02-17T20:33:56.235Z,100191.75
2023-02-17T20:36:24.425Z,100175.44
2023-02-17T20:38:51.640Z,100173.22
2023-02-17T20:41:21.610Z,100170.69
2023-02-17T20:43:50.191Z,100191.53
2023-02-17T20:46:26.641Z,100167.13
2023-02-17T20:48:55.581Z,100158.66
2023-02-17T20:51:22.930Z,100167.66
2023-02-17T20:53:50.114Z,100180.38
2023-02-17T20:56:20.220Z,100174.09
2023-02-17T20:58:47.693Z,100189.53
2023-02-17T21:01:14.293Z,100186.47
2023-02-17T21:03:41.671Z,100194.09
2023-02-17T21:06:28.285Z,100214.06
2023-02-17T21:08:58.429Z,100191.16
2023-02-17T21:11:25.991Z,100195.41
2023-02-17T21:13:53.885Z,100205.56
2023-02-17T21:16:23.663Z,100209.28
2023-02-17T21:18:50.655Z,100206.53
2023-02-17T21:21:17.470Z,100215.16
2023-02-17T21:23:44.589Z,100229.19
2023-02-17T21:26:12.910Z,100223.06
2023-02-17T21:28:40.731Z,100228.28
2023-02-17T21:31:07.586Z,100229.25
2023-02-17T21:33:41.160Z,100236.00
2023-02-17T21:36:10.141Z,100230.56
2023-02-17T21:38:37.957Z,100234.13
2023-02-17T21:41:07.113Z,100230.88
2023-02-17T21:43:52.438Z,100229.00
2023-02-17T21:46:20.187Z,100232.47
2023-02-17T21:48:48.589Z,100235.16
2023-02-17T21:51:15.219Z,100233.56
2023-02-17T21:53:42.238Z,100241.69
2023-02-17T21:56:09.697Z,100229.81
2023-02-17T21:58:37.629Z,100237.22
2023-02-17T22:01:07.062Z,100244.28
2023-02-17T22:03:34.050Z,100237.72
2023-02-17T22:06:00.453Z,100245.28
2023-02-17T22:08:26.863Z,100234.47
2023-02-17T22:10:53.919Z,100232.78
2023-02-17T22:13:20.631Z,100242.59
2023-02-17T22:15:56.746Z,100272.13
2023-02-17T22:18:23.795Z,100269.25
2023-02-17T22:20:50.319Z,100263.47
2023-02-17T22:23:16.629Z,100274.28
2023-02-17T22:25:43.177Z,100276.44
2023-02-17T22:28:10.912Z,100275.38
2023-02-17T22:30:38.452Z,100284.25
2023-02-17T22:33:04.777Z,100286.59
2023-02-17T22:35:31.641Z,100293.16
2023-02-17T22:37:58.996Z,100299.03
2023-02-17T22:40:26.160Z,100302.34
2023-02-17T22:42:52.437Z,100306.75
2023-02-17T22:45:18.942Z,100298.09
2023-02-17T22:47:45.366Z,100302.63
2023-02-17T22:50:11.951Z,100318.16
2023-02-17T22:52:38.162Z,100324.13
2023-02-17T22:55:05.016Z,100319.50
2023-02-17T22:57:31.566Z,100311.16
2023-02-17T22:59:58.220Z,100317.41
2023-02-17T23:02:24.530Z,100307.44
2023-02-17T23:04:51.354Z,100300.50
2023-02-17T23:07:17.640Z,100310.75
2023-02-17T23:09:44.627Z,100318.72
2023-02-17T23:12:10.964Z,100313.75
2023-02-17T23:14:39.320Z,100323.88
2023-02-17T23:17:08.717Z,100326.88
2023-02-17T23:19:36.444Z,100344.69
2023-02-17T23:22:06.672Z,100345.84
2023-02-17T23:24:34.497Z,100345.44
2023-02-17T23:27:02.551Z,100352.09
2023-02-17T23:29:30.595Z,100355.53
2023-02-17T23:31:57.990Z,100361.63
2023-02-17T23:34:24.662Z,100373.44
2023-02-17T23:36:50.889Z,100365.63
2023-02-17T23:39:17.503Z,100388.94
2023-02-17T23:41:43.989Z,100387.41
2023-02-17T23:44:12.153Z,100390.09
2023-02-17T23:46:39.652Z,100390.66
2023-02-17T23:49:06.703Z,100394.09
2023-02-17T23:51:33.079Z,100398.94
2023-02-17T23:53:59.760Z,100405.06
2023-02-17T23:56:32.788Z,100402.25
2023-02-17T23:58:59.807Z,100405.94
